This is the latest recevied weather packets stored in our database for station/object W4SMH. If no packets are shown the sender has not sent any weather packets the latest 10 day(s).
| Time | Temp. | Humidity | Pressure | Rain* | Wind** | Luminosity | Snow |
|---|---|---|---|---|---|---|---|
| 1777927364 | 26.11° C | 31% | 996 hPa | 0 mm | - | 687 W/m² | - |
| 1777926880 | 26.11° C | 32% | 995.9 hPa | 0 mm | - | 737 W/m² | - |
| 1777926596 | 26.11° C | 32% | 996.1 hPa | 0 mm | - | 782 W/m² | - |
| 1777926376 | 26.11° C | 33% | 996 hPa | 0 mm | - | 707 W/m² | - |
| 1777926344 | 26.11° C | 31% | 996.1 hPa | 0 mm | - | 747 W/m² | - |
| 1777926026 | 26.11° C | 33% | 996.1 hPa | 0 mm | - | 742 W/m² | - |
| 1777925077 | 26.11° C | 33% | 996.5 hPa | 0 mm | - | 754 W/m² | - |
| 1777924066 | 25.56° C | 30% | 996.7 hPa | 0 mm | - | 824 W/m² | - |
| 1777923913 | 25.56° C | 31% | 996.6 hPa | 0 mm | - | 819 W/m² | - |
| 1777923883 | 25.56° C | 30% | 996.6 hPa | 0 mm | - | 831 W/m² | - |
| 1777923822 | 25.56° C | 32% | 996.7 hPa | 0 mm | - | 772 W/m² | - |
| 1777923389 | 25.56° C | 31% | 996.5 hPa | 0 mm | - | 647 W/m² | - |
| 1777923270 | 25.56° C | 30% | 996.7 hPa | 0 mm | - | 647 W/m² | - |
| 1777923246 | 25.56° C | 30% | 996.7 hPa | 0 mm | - | 610 W/m² | - |
| 1777922908 | 25.56° C | 32% | 996.7 hPa | 0 mm | - | 431 W/m² | - |
| 1777922406 | 25.56° C | 31% | 996.8 hPa | 0 mm | - | 926 W/m² | - |
| 1777922198 | 25.56° C | 31% | 996.8 hPa | 0 mm | - | 946 W/m² | - |
| 1777921973 | 25.56° C | 31% | 996.8 hPa | 0 mm | - | 946 W/m² | - |
| 1777920087 | 25° C | 35% | 997.1 hPa | 0 mm | - | 907 W/m² | - |
| 1777919914 | 6.67° C | 64% | 1012.6 hPa | 0 mm | - | 0 W/m² | - |
| 1777919903 | 6.67° C | 64% | 1012.6 hPa | 0 mm | - | 0 W/m² | - |
| 1777919780 | 25° C | 35% | 997.2 hPa | 0 mm | - | 875 W/m² | - |
| 1777919552 | 7.22° C | 64% | 1012.7 hPa | 0 mm | - | 0 W/m² | - |
| 1777919242 | 7.22° C | 64% | 1012.8 hPa | 0 mm | - | 0 W/m² | - |
| 1777919108 | 24.44° C | 34% | 997.1 hPa | 0 mm | - | 914 W/m² | - |
* Rain latest hour (hover to see other rain measurements)
** Current wind speed in m/s (hover to see current wind gust speed)